sensor_id;sensor_type;location;lat;lon;timestamp;temperature;humidity
3923;DHT22;1976;51.694;6.256;2024-03-08T00:01:14;6.60;99.90
3923;DHT22;1976;51.694;6.256;2024-03-08T00:03:39;5.00;99.90
3923;DHT22;1976;51.694;6.256;2024-03-08T00:06:05;5.40;99.90
3923;DHT22;1976;51.694;6.256;2024-03-08T00:08:31;5.00;99.90
3923;DHT22;1976;51.694;6.256;2024-03-08T00:10:57;4.90;99.90
3923;DHT22;1976;51.694;6.256;2024-03-08T00:13:22;4.90;99.90
3923;DHT22;1976;51.694;6.256;2024-03-08T00:15:49;4.90;99.90
3923;DHT22;1976;51.694;6.256;2024-03-08T00:18:16;4.80;99.90
3923;DHT22;1976;51.694;6.256;2024-03-08T00:20:42;6.60;99.90
3923;DHT22;1976;51.694;6.256;2024-03-08T00:23:07;4.80;99.90
3923;DHT22;1976;51.694;6.256;2024-03-08T00:25:33;7.20;99.90
3923;DHT22;1976;51.694;6.256;2024-03-08T00:27:59;6.20;99.90
3923;DHT22;1976;51.694;6.256;2024-03-08T00:30:25;4.70;99.90
3923;DHT22;1976;51.694;6.256;2024-03-08T00:32:51;4.70;99.90
3923;DHT22;1976;51.694;6.256;2024-03-08T00:35:16;6.40;99.90
3923;DHT22;1976;51.694;6.256;2024-03-08T00:37:43;5.30;99.90
3923;DHT22;1976;51.694;6.256;2024-03-08T00:40:12;6.80;99.90
3923;DHT22;1976;51.694;6.256;2024-03-08T00:42:37;4.60;99.90
3923;DHT22;1976;51.694;6.256;2024-03-08T00:45:04;7.00;99.90
3923;DHT22;1976;51.694;6.256;2024-03-08T00:47:29;4.60;99.90
3923;DHT22;1976;51.694;6.256;2024-03-08T00:49:55;4.60;99.90
3923;DHT22;1976;51.694;6.256;2024-03-08T00:52:22;6.10;99.90
3923;DHT22;1976;51.694;6.256;2024-03-08T00:54:49;4.50;99.90
3923;DHT22;1976;51.694;6.256;2024-03-08T00:57:15;4.50;99.90
3923;DHT22;1976;51.694;6.256;2024-03-08T00:59:40;4.50;99.90
3923;DHT22;1976;51.694;6.256;2024-03-08T01:02:06;4.40;99.90
3923;DHT22;1976;51.694;6.256;2024-03-08T01:04:31;4.40;99.90
3923;DHT22;1976;51.694;6.256;2024-03-08T01:06:59;5.10;99.90
3923;DHT22;1976;51.694;6.256;2024-03-08T01:09:25;5.70;99.90
3923;DHT22;1976;51.694;6.256;2024-03-08T01:11:52;4.30;99.90
3923;DHT22;1976;51.694;6.256;2024-03-08T01:14:20;4.30;99.90
3923;DHT22;1976;51.694;6.256;2024-03-08T01:16:48;4.30;99.90
3923;DHT22;1976;51.694;6.256;2024-03-08T01:19:13;4.20;99.90
3923;DHT22;1976;51.694;6.256;2024-03-08T01:21:39;4.20;99.90
3923;DHT22;1976;51.694;6.256;2024-03-08T01:24:05;4.20;99.90
3923;DHT22;1976;51.694;6.256;2024-03-08T01:26:31;4.20;99.90
3923;DHT22;1976;51.694;6.256;2024-03-08T01:28:56;4.80;99.90
3923;DHT22;1976;51.694;6.256;2024-03-08T01:31:22;4.10;99.90
3923;DHT22;1976;51.694;6.256;2024-03-08T01:33:47;4.90;99.90
3923;DHT22;1976;51.694;6.256;2024-03-08T01:36:13;5.00;99.90
3923;DHT22;1976;51.694;6.256;2024-03-08T01:38:41;4.50;99.90
3923;DHT22;1976;51.694;6.256;2024-03-08T01:41:07;6.30;99.90
3923;DHT22;1976;51.694;6.256;2024-03-08T01:43:34;4.10;99.90
3923;DHT22;1976;51.694;6.256;2024-03-08T01:46:00;4.10;99.90
3923;DHT22;1976;51.694;6.256;2024-03-08T01:48:28;4.00;99.90
3923;DHT22;1976;51.694;6.256;2024-03-08T01:50:55;4.00;99.90
3923;DHT22;1976;51.694;6.256;2024-03-08T01:53:21;5.80;99.90
3923;DHT22;1976;51.694;6.256;2024-03-08T01:55:48;4.00;99.90
3923;DHT22;1976;51.694;6.256;2024-03-08T01:58:14;6.00;99.90
3923;DHT22;1976;51.694;6.256;2024-03-08T02:00:44;4.00;99.90
3923;DHT22;1976;51.694;6.256;2024-03-08T02:03:12;4.00;99.90
3923;DHT22;1976;51.694;6.256;2024-03-08T02:05:40;3.90;99.90
3923;DHT22;1976;51.694;6.256;2024-03-08T02:08:06;3.90;99.90
3923;DHT22;1976;51.694;6.256;2024-03-08T02:10:40;3.90;99.90
3923;DHT22;1976;51.694;6.256;2024-03-08T02:13:07;3.90;99.90
3923;DHT22;1976;51.694;6.256;2024-03-08T02:15:55;3.80;99.90
3923;DHT22;1976;51.694;6.256;2024-03-08T02:18:22;3.80;99.90
3923;DHT22;1976;51.694;6.256;2024-03-08T02:20:52;3.80;99.90
3923;DHT22;1976;51.694;6.256;2024-03-08T02:23:19;4.90;99.90
3923;DHT22;1976;51.694;6.256;2024-03-08T02:25:45;5.60;99.90
3923;DHT22;1976;51.694;6.256;2024-03-08T02:28:11;4.50;99.90
3923;DHT22;1976;51.694;6.256;2024-03-08T02:30:38;6.00;99.90
3923;DHT22;1976;51.694;6.256;2024-03-08T02:33:07;3.60;99.90
3923;DHT22;1976;51.694;6.256;2024-03-08T02:35:34;3.60;99.90
3923;DHT22;1976;51.694;6.256;2024-03-08T02:38:01;4.00;99.90
3923;DHT22;1976;51.694;6.256;2024-03-08T02:40:27;4.50;99.90
3923;DHT22;1976;51.694;6.256;2024-03-08T02:42:52;3.60;99.90
3923;DHT22;1976;51.694;6.256;2024-03-08T02:45:18;3.50;99.90
3923;DHT22;1976;51.694;6.256;2024-03-08T02:47:44;3.50;99.90
3923;DHT22;1976;51.694;6.256;2024-03-08T02:50:09;3.60;99.90
3923;DHT22;1976;51.694;6.256;2024-03-08T02:52:35;3.50;99.90
3923;DHT22;1976;51.694;6.256;2024-03-08T02:55:01;3.50;99.90
3923;DHT22;1976;51.694;6.256;2024-03-08T02:57:27;3.50;99.90
3923;DHT22;1976;51.694;6.256;2024-03-08T02:59:53;6.30;99.90
3923;DHT22;1976;51.694;6.256;2024-03-08T03:02:19;5.40;99.90
3923;DHT22;1976;51.694;6.256;2024-03-08T03:04:45;3.50;99.90
3923;DHT22;1976;51.694;6.256;2024-03-08T03:07:10;3.50;99.90
3923;DHT22;1976;51.694;6.256;2024-03-08T03:09:36;5.60;99.90
3923;DHT22;1976;51.694;6.256;2024-03-08T03:12:02;3.70;99.90
3923;DHT22;1976;51.694;6.256;2024-03-08T03:14:28;3.50;99.90
3923;DHT22;1976;51.694;6.256;2024-03-08T03:16:54;3.50;99.90
3923;DHT22;1976;51.694;6.256;2024-03-08T03:19:20;3.50;99.90
3923;DHT22;1976;51.694;6.256;2024-03-08T03:21:46;3.40;99.90
3923;DHT22;1976;51.694;6.256;2024-03-08T03:24:12;3.40;99.90
3923;DHT22;1976;51.694;6.256;2024-03-08T03:26:41;3.40;99.90
3923;DHT22;1976;51.694;6.256;2024-03-08T03:29:09;3.40;99.90
3923;DHT22;1976;51.694;6.256;2024-03-08T03:31:35;5.00;99.90
3923;DHT22;1976;51.694;6.256;2024-03-08T03:34:01;5.90;99.90
3923;DHT22;1976;51.694;6.256;2024-03-08T03:36:29;6.00;99.90
3923;DHT22;1976;51.694;6.256;2024-03-08T03:38:55;3.40;99.90
3923;DHT22;1976;51.694;6.256;2024-03-08T03:41:35;3.40;99.90
3923;DHT22;1976;51.694;6.256;2024-03-08T03:44:00;5.20;99.90
3923;DHT22;1976;51.694;6.256;2024-03-08T03:46:26;3.40;99.90
3923;DHT22;1976;51.694;6.256;2024-03-08T03:48:53;3.40;99.90
3923;DHT22;1976;51.694;6.256;2024-03-08T03:51:18;3.40;99.90
3923;DHT22;1976;51.694;6.256;2024-03-08T03:53:45;3.40;99.90
3923;DHT22;1976;51.694;6.256;2024-03-08T03:56:10;3.40;99.90
3923;DHT22;1976;51.694;6.256;2024-03-08T03:58:36;6.00;99.90
3923;DHT22;1976;51.694;6.256;2024-03-08T04:01:04;6.00;99.90
3923;DHT22;1976;51.694;6.256;2024-03-08T04:03:30;4.50;99.90
3923;DHT22;1976;51.694;6.256;2024-03-08T04:05:55;3.30;99.90
3923;DHT22;1976;51.694;6.256;2024-03-08T04:08:21;3.40;99.90
3923;DHT22;1976;51.694;6.256;2024-03-08T04:10:48;3.30;99.90
3923;DHT22;1976;51.694;6.256;2024-03-08T04:13:13;4.50;99.90
3923;DHT22;1976;51.694;6.256;2024-03-08T04:15:41;4.40;99.90
3923;DHT22;1976;51.694;6.256;2024-03-08T04:18:06;3.70;99.90
3923;DHT22;1976;51.694;6.256;2024-03-08T04:20:32;3.20;99.90
3923;DHT22;1976;51.694;6.256;2024-03-08T04:22:57;4.90;99.90
3923;DHT22;1976;51.694;6.256;2024-03-08T04:25:23;3.20;99.90
3923;DHT22;1976;51.694;6.256;2024-03-08T04:27:49;3.20;99.90
3923;DHT22;1976;51.694;6.256;2024-03-08T04:30:15;3.20;99.90
3923;DHT22;1976;51.694;6.256;2024-03-08T04:32:40;3.20;99.90
3923;DHT22;1976;51.694;6.256;2024-03-08T04:35:09;3.10;99.90
3923;DHT22;1976;51.694;6.256;2024-03-08T04:37:34;3.10;99.90
3923;DHT22;1976;51.694;6.256;2024-03-08T04:40:00;3.10;99.90
3923;DHT22;1976;51.694;6.256;2024-03-08T04:42:27;4.00;99.90
3923;DHT22;1976;51.694;6.256;2024-03-08T04:44:54;3.40;99.90
3923;DHT22;1976;51.694;6.256;2024-03-08T04:47:19;3.00;99.90
3923;DHT22;1976;51.694;6.256;2024-03-08T04:49:45;3.00;99.90
3923;DHT22;1976;51.694;6.256;2024-03-08T04:52:12;4.60;99.90
3923;DHT22;1976;51.694;6.256;2024-03-08T04:54:37;5.30;99.90
3923;DHT22;1976;51.694;6.256;2024-03-08T04:57:03;3.00;99.90
3923;DHT22;1976;51.694;6.256;2024-03-08T04:59:30;3.00;99.90
3923;DHT22;1976;51.694;6.256;2024-03-08T05:01:55;4.80;99.90
3923;DHT22;1976;51.694;6.256;2024-03-08T05:04:21;2.90;99.90
3923;DHT22;1976;51.694;6.256;2024-03-08T05:06:47;2.90;99.90
3923;DHT22;1976;51.694;6.256;2024-03-08T05:09:14;4.40;99.90
3923;DHT22;1976;51.694;6.256;2024-03-08T05:11:41;4.70;99.90
3923;DHT22;1976;51.694;6.256;2024-03-08T05:14:06;2.80;99.90
3923;DHT22;1976;51.694;6.256;2024-03-08T05:16:32;4.40;99.90
3923;DHT22;1976;51.694;6.256;2024-03-08T05:18:57;2.80;99.90
3923;DHT22;1976;51.694;6.256;2024-03-08T05:21:23;4.80;99.90
3923;DHT22;1976;51.694;6.256;2024-03-08T05:23:49;3.80;99.90
3923;DHT22;1976;51.694;6.256;2024-03-08T05:26:16;2.70;99.90
3923;DHT22;1976;51.694;6.256;2024-03-08T05:28:42;5.50;99.90
3923;DHT22;1976;51.694;6.256;2024-03-08T05:31:08;4.70;99.90
3923;DHT22;1976;51.694;6.256;2024-03-08T05:33:34;2.70;99.90
3923;DHT22;1976;51.694;6.256;2024-03-08T05:36:02;4.60;99.90
3923;DHT22;1976;51.694;6.256;2024-03-08T05:38:28;2.70;99.90
3923;DHT22;1976;51.694;6.256;2024-03-08T05:40:54;2.70;99.90
3923;DHT22;1976;51.694;6.256;2024-03-08T05:43:20;2.70;99.90
3923;DHT22;1976;51.694;6.256;2024-03-08T05:45:46;2.70;99.90
3923;DHT22;1976;51.694;6.256;2024-03-08T05:48:13;2.60;99.90
3923;DHT22;1976;51.694;6.256;2024-03-08T05:50:39;5.20;99.90
3923;DHT22;1976;51.694;6.256;2024-03-08T05:53:04;4.00;99.90
3923;DHT22;1976;51.694;6.256;2024-03-08T05:55:33;2.50;99.90
3923;DHT22;1976;51.694;6.256;2024-03-08T05:58:02;2.60;99.90
3923;DHT22;1976;51.694;6.256;2024-03-08T06:00:27;2.70;99.90
3923;DHT22;1976;51.694;6.256;2024-03-08T06:02:53;4.10;99.90
3923;DHT22;1976;51.694;6.256;2024-03-08T06:05:19;4.10;99.90
3923;DHT22;1976;51.694;6.256;2024-03-08T06:07:44;2.50;99.90
3923;DHT22;1976;51.694;6.256;2024-03-08T06:10:11;4.40;99.90
3923;DHT22;1976;51.694;6.256;2024-03-08T06:12:42;2.60;99.90
3923;DHT22;1976;51.694;6.256;2024-03-08T06:15:08;2.60;99.90
3923;DHT22;1976;51.694;6.256;2024-03-08T06:17:35;2.60;99.90
3923;DHT22;1976;51.694;6.256;2024-03-08T06:20:02;3.80;99.90
3923;DHT22;1976;51.694;6.256;2024-03-08T06:22:28;3.10;99.90
3923;DHT22;1976;51.694;6.256;2024-03-08T06:24:56;2.60;99.90
3923;DHT22;1976;51.694;6.256;2024-03-08T06:27:21;2.60;99.90
3923;DHT22;1976;51.694;6.256;2024-03-08T06:29:47;2.60;99.90
3923;DHT22;1976;51.694;6.256;2024-03-08T06:32:14;2.60;99.90
3923;DHT22;1976;51.694;6.256;2024-03-08T06:34:41;2.70;99.90
3923;DHT22;1976;51.694;6.256;2024-03-08T06:37:06;2.70;99.90
3923;DHT22;1976;51.694;6.256;2024-03-08T06:39:32;2.80;99.90
3923;DHT22;1976;51.694;6.256;2024-03-08T06:41:58;2.80;99.90
3923;DHT22;1976;51.694;6.256;2024-03-08T06:44:23;2.90;99.90
3923;DHT22;1976;51.694;6.256;2024-03-08T06:46:49;3.30;99.90
3923;DHT22;1976;51.694;6.256;2024-03-08T06:49:14;4.10;99.90
3923;DHT22;1976;51.694;6.256;2024-03-08T06:51:41;4.50;99.90
3923;DHT22;1976;51.694;6.256;2024-03-08T06:54:07;3.60;99.90
3923;DHT22;1976;51.694;6.256;2024-03-08T06:56:34;6.60;99.90
3923;DHT22;1976;51.694;6.256;2024-03-08T06:59:00;5.40;99.90
3923;DHT22;1976;51.694;6.256;2024-03-08T07:01:28;3.90;99.90
3923;DHT22;1976;51.694;6.256;2024-03-08T07:03:57;6.00;99.90
3923;DHT22;1976;51.694;6.256;2024-03-08T07:06:23;4.30;99.90
3923;DHT22;1976;51.694;6.256;2024-03-08T07:08:48;3.90;99.90
3923;DHT22;1976;51.694;6.256;2024-03-08T07:11:14;6.00;99.90
3923;DHT22;1976;51.694;6.256;2024-03-08T07:13:46;3.90;99.90
3923;DHT22;1976;51.694;6.256;2024-03-08T07:16:12;4.40;99.90
3923;DHT22;1976;51.694;6.256;2024-03-08T07:18:37;6.40;99.90
3923;DHT22;1976;51.694;6.256;2024-03-08T07:21:09;3.80;99.90
3923;DHT22;1976;51.694;6.256;2024-03-08T07:23:35;3.80;99.90
3923;DHT22;1976;51.694;6.256;2024-03-08T07:26:28;3.90;99.90
3923;DHT22;1976;51.694;6.256;2024-03-08T07:28:53;3.90;99.90
3923;DHT22;1976;51.694;6.256;2024-03-08T07:31:20;6.80;99.90
3923;DHT22;1976;51.694;6.256;2024-03-08T07:34:00;4.00;99.90
3923;DHT22;1976;51.694;6.256;2024-03-08T07:36:25;5.50;99.90
3923;DHT22;1976;51.694;6.256;2024-03-08T07:38:51;4.10;99.90
3923;DHT22;1976;51.694;6.256;2024-03-08T07:41:17;4.20;99.90
3923;DHT22;1976;51.694;6.256;2024-03-08T07:43:42;4.20;99.90
3923;DHT22;1976;51.694;6.256;2024-03-08T07:46:09;4.30;99.90
3923;DHT22;1976;51.694;6.256;2024-03-08T07:48:36;4.40;99.90
3923;DHT22;1976;51.694;6.256;2024-03-08T07:51:02;4.40;99.90
3923;DHT22;1976;51.694;6.256;2024-03-08T07:53:28;4.50;99.90
3923;DHT22;1976;51.694;6.256;2024-03-08T07:55:54;4.60;99.90
3923;DHT22;1976;51.694;6.256;2024-03-08T07:58:19;5.80;99.90
3923;DHT22;1976;51.694;6.256;2024-03-08T08:00:45;4.80;99.90
3923;DHT22;1976;51.694;6.256;2024-03-08T08:03:11;4.90;99.90
3923;DHT22;1976;51.694;6.256;2024-03-08T08:05:38;5.00;99.90
3923;DHT22;1976;51.694;6.256;2024-03-08T08:08:05;6.70;99.90
3923;DHT22;1976;51.694;6.256;2024-03-08T08:10:34;5.30;99.90
3923;DHT22;1976;51.694;6.256;2024-03-08T08:13:00;5.50;99.90
3923;DHT22;1976;51.694;6.256;2024-03-08T08:15:25;5.80;99.90
3923;DHT22;1976;51.694;6.256;2024-03-08T08:17:53;5.90;99.90
3923;DHT22;1976;51.694;6.256;2024-03-08T08:20:18;6.10;99.70
3923;DHT22;1976;51.694;6.256;2024-03-08T08:22:44;6.40;99.60
3923;DHT22;1976;51.694;6.256;2024-03-08T08:25:10;6.60;99.30
3923;DHT22;1976;51.694;6.256;2024-03-08T08:27:39;6.80;99.10
3923;DHT22;1976;51.694;6.256;2024-03-08T08:30:11;7.20;99.00
3923;DHT22;1976;51.694;6.256;2024-03-08T08:32:37;7.50;98.40
3923;DHT22;1976;51.694;6.256;2024-03-08T08:35:08;8.00;98.10
3923;DHT22;1976;51.694;6.256;2024-03-08T08:37:35;8.30;97.00
3923;DHT22;1976;51.694;6.256;2024-03-08T08:40:04;8.60;96.60
3923;DHT22;1976;51.694;6.256;2024-03-08T08:42:35;9.00;96.40
3923;DHT22;1976;51.694;6.256;2024-03-08T08:45:00;9.30;95.40
3923;DHT22;1976;51.694;6.256;2024-03-08T08:47:29;9.70;95.40
3923;DHT22;1976;51.694;6.256;2024-03-08T08:49:55;10.10;94.30
3923;DHT22;1976;51.694;6.256;2024-03-08T08:52:20;10.50;93.60
3923;DHT22;1976;51.694;6.256;2024-03-08T08:54:46;11.00;93.00
3923;DHT22;1976;51.694;6.256;2024-03-08T08:57:11;11.50;92.60
3923;DHT22;1976;51.694;6.256;2024-03-08T08:59:37;11.90;91.80
3923;DHT22;1976;51.694;6.256;2024-03-08T09:02:06;12.10;91.20
3923;DHT22;1976;51.694;6.256;2024-03-08T09:04:31;12.50;91.00
3923;DHT22;1976;51.694;6.256;2024-03-08T09:06:57;12.80;90.10
3923;DHT22;1976;51.694;6.256;2024-03-08T09:09:23;13.00;89.00
3923;DHT22;1976;51.694;6.256;2024-03-08T09:11:49;13.20;88.50
3923;DHT22;1976;51.694;6.256;2024-03-08T09:14:15;13.30;88.10
3923;DHT22;1976;51.694;6.256;2024-03-08T09:16:41;13.50;87.80
3923;DHT22;1976;51.694;6.256;2024-03-08T09:19:07;13.60;86.70
3923;DHT22;1976;51.694;6.256;2024-03-08T09:21:33;13.80;85.30
3923;DHT22;1976;51.694;6.256;2024-03-08T09:24:00;14.10;85.10
3923;DHT22;1976;51.694;6.256;2024-03-08T09:26:26;14.40;84.00
3923;DHT22;1976;51.694;6.256;2024-03-08T09:28:52;15.10;84.00
3923;DHT22;1976;51.694;6.256;2024-03-08T09:31:18;15.80;82.10
3923;DHT22;1976;51.694;6.256;2024-03-08T09:33:43;16.60;80.20
3923;DHT22;1976;51.694;6.256;2024-03-08T09:36:09;17.30;79.10
3923;DHT22;1976;51.694;6.256;2024-03-08T09:38:34;17.90;77.40
3923;DHT22;1976;51.694;6.256;2024-03-08T09:41:00;18.60;74.70
3923;DHT22;1976;51.694;6.256;2024-03-08T09:43:28;19.20;73.00
3923;DHT22;1976;51.694;6.256;2024-03-08T09:45:53;19.70;71.80
3923;DHT22;1976;51.694;6.256;2024-03-08T09:48:21;20.20;70.60
3923;DHT22;1976;51.694;6.256;2024-03-08T09:50:47;20.80;68.70
3923;DHT22;1976;51.694;6.256;2024-03-08T09:53:13;21.20;67.70
3923;DHT22;1976;51.694;6.256;2024-03-08T09:55:39;21.50;66.00
3923;DHT22;1976;51.694;6.256;2024-03-08T09:58:08;21.90;65.20
3923;DHT22;1976;51.694;6.256;2024-03-08T10:00:53;22.30;64.10
3923;DHT22;1976;51.694;6.256;2024-03-08T10:03:19;22.50;62.70
3923;DHT22;1976;51.694;6.256;2024-03-08T10:05:45;22.80;62.60
3923;DHT22;1976;51.694;6.256;2024-03-08T10:08:12;23.30;61.70
3923;DHT22;1976;51.694;6.256;2024-03-08T10:10:38;23.50;61.00
3923;DHT22;1976;51.694;6.256;2024-03-08T10:13:07;23.60;60.20
3923;DHT22;1976;51.694;6.256;2024-03-08T10:15:33;23.80;59.40
3923;DHT22;1976;51.694;6.256;2024-03-08T10:17:59;23.90;58.90
3923;DHT22;1976;51.694;6.256;2024-03-08T10:20:24;23.80;58.00
3923;DHT22;1976;51.694;6.256;2024-03-08T10:22:52;22.90;57.50
3923;DHT22;1976;51.694;6.256;2024-03-08T10:25:19;22.80;59.30
3923;DHT22;1976;51.694;6.256;2024-03-08T10:27:44;23.50;58.50
3923;DHT22;1976;51.694;6.256;2024-03-08T10:30:15;23.60;57.10
3923;DHT22;1976;51.694;6.256;2024-03-08T10:32:41;23.20;56.30
3923;DHT22;1976;51.694;6.256;2024-03-08T10:35:10;23.20;56.10
3923;DHT22;1976;51.694;6.256;2024-03-08T10:37:45;23.10;56.90
3923;DHT22;1976;51.694;6.256;2024-03-08T10:40:16;22.90;55.10
3923;DHT22;1976;51.694;6.256;2024-03-08T10:45:36;21.10;56.70
3923;DHT22;1976;51.694;6.256;2024-03-08T10:48:29;20.90;57.70
3923;DHT22;1976;51.694;6.256;2024-03-08T10:51:04;20.90;57.20
3923;DHT22;1976;51.694;6.256;2024-03-08T10:53:30;20.50;58.80
3923;DHT22;1976;51.694;6.256;2024-03-08T10:55:58;20.90;57.80
3923;DHT22;1976;51.694;6.256;2024-03-08T10:58:26;20.60;56.40
3923;DHT22;1976;51.694;6.256;2024-03-08T11:00:56;20.20;57.80
3923;DHT22;1976;51.694;6.256;2024-03-08T11:06:41;20.80;57.90
3923;DHT22;1976;51.694;6.256;2024-03-08T11:09:29;21.50;57.30
3923;DHT22;1976;51.694;6.256;2024-03-08T11:12:26;21.40;57.50
3923;DHT22;1976;51.694;6.256;2024-03-08T11:14:58;21.50;56.60
3923;DHT22;1976;51.694;6.256;2024-03-08T11:19:56;22.50;55.70
3923;DHT22;1976;51.694;6.256;2024-03-08T11:22:28;22.80;55.40
3923;DHT22;1976;51.694;6.256;2024-03-08T11:25:08;23.10;55.30
3923;DHT22;1976;51.694;6.256;2024-03-08T11:27:36;23.60;54.60
3923;DHT22;1976;51.694;6.256;2024-03-08T11:30:06;24.10;55.80
3923;DHT22;1976;51.694;6.256;2024-03-08T11:32:43;24.70;53.90
3923;DHT22;1976;51.694;6.256;2024-03-08T11:35:18;25.10;53.60
3923;DHT22;1976;51.694;6.256;2024-03-08T11:37:44;25.60;53.00
3923;DHT22;1976;51.694;6.256;2024-03-08T11:40:14;25.80;51.20
3923;DHT22;1976;51.694;6.256;2024-03-08T11:42:44;25.30;51.20
3923;DHT22;1976;51.694;6.256;2024-03-08T11:45:12;25.00;52.20
3923;DHT22;1976;51.694;6.256;2024-03-08T11:47:41;25.40;51.60
3923;DHT22;1976;51.694;6.256;2024-03-08T11:50:07;25.70;50.10
3923;DHT22;1976;51.694;6.256;2024-03-08T11:52:36;25.90;49.70
3923;DHT22;1976;51.694;6.256;2024-03-08T11:55:03;26.00;50.80
3923;DHT22;1976;51.694;6.256;2024-03-08T11:57:30;25.20;48.90
3923;DHT22;1976;51.694;6.256;2024-03-08T11:59:59;25.10;52.10
3923;DHT22;1976;51.694;6.256;2024-03-08T12:02:32;24.60;50.10
3923;DHT22;1976;51.694;6.256;2024-03-08T12:05:00;23.90;52.20
3923;DHT22;1976;51.694;6.256;2024-03-08T12:07:31;24.10;52.20
3923;DHT22;1976;51.694;6.256;2024-03-08T12:12:54;25.00;51.50
3923;DHT22;1976;51.694;6.256;2024-03-08T12:15:22;25.80;50.50
3923;DHT22;1976;51.694;6.256;2024-03-08T12:17:49;26.20;50.00
3923;DHT22;1976;51.694;6.256;2024-03-08T12:20:22;26.30;49.40
3923;DHT22;1976;51.694;6.256;2024-03-08T12:22:49;26.50;49.50
3923;DHT22;1976;51.694;6.256;2024-03-08T12:25:15;26.70;49.10
3923;DHT22;1976;51.694;6.256;2024-03-08T12:27:42;26.90;49.00
3923;DHT22;1976;51.694;6.256;2024-03-08T12:32:53;27.20;47.70
3923;DHT22;1976;51.694;6.256;2024-03-08T12:35:20;27.20;47.60
3923;DHT22;1976;51.694;6.256;2024-03-08T12:37:48;27.20;47.60
3923;DHT22;1976;51.694;6.256;2024-03-08T12:40:14;27.40;48.20
3923;DHT22;1976;51.694;6.256;2024-03-08T12:42:43;27.70;48.20
3923;DHT22;1976;51.694;6.256;2024-03-08T12:45:08;27.70;47.20
3923;DHT22;1976;51.694;6.256;2024-03-08T12:47:35;27.70;46.50
3923;DHT22;1976;51.694;6.256;2024-03-08T12:50:02;27.80;45.40
3923;DHT22;1976;51.694;6.256;2024-03-08T12:52:28;27.50;47.10
3923;DHT22;1976;51.694;6.256;2024-03-08T12:54:55;27.50;46.50
3923;DHT22;1976;51.694;6.256;2024-03-08T12:57:21;27.00;46.20
3923;DHT22;1976;51.694;6.256;2024-03-08T12:59:46;26.80;46.10
3923;DHT22;1976;51.694;6.256;2024-03-08T13:02:12;26.50;46.30
3923;DHT22;1976;51.694;6.256;2024-03-08T13:04:37;26.10;46.20
3923;DHT22;1976;51.694;6.256;2024-03-08T13:07:03;26.40;46.60
3923;DHT22;1976;51.694;6.256;2024-03-08T13:09:29;26.40;47.10
3923;DHT22;1976;51.694;6.256;2024-03-08T13:11:54;26.50;46.70
3923;DHT22;1976;51.694;6.256;2024-03-08T13:14:21;26.60;46.10
3923;DHT22;1976;51.694;6.256;2024-03-08T13:16:47;26.50;46.10
3923;DHT22;1976;51.694;6.256;2024-03-08T13:19:13;26.60;45.70
3923;DHT22;1976;51.694;6.256;2024-03-08T13:21:39;26.70;46.70
3923;DHT22;1976;51.694;6.256;2024-03-08T13:24:05;26.70;45.70
3923;DHT22;1976;51.694;6.256;2024-03-08T13:26:30;26.80;45.10
3923;DHT22;1976;51.694;6.256;2024-03-08T13:28:59;26.70;46.20
3923;DHT22;1976;51.694;6.256;2024-03-08T13:31:24;27.00;46.30
3923;DHT22;1976;51.694;6.256;2024-03-08T13:33:50;27.20;46.40
3923;DHT22;1976;51.694;6.256;2024-03-08T13:36:17;26.40;45.50
3923;DHT22;1976;51.694;6.256;2024-03-08T13:38:47;25.60;50.50
3923;DHT22;1976;51.694;6.256;2024-03-08T13:41:16;25.90;49.10
3923;DHT22;1976;51.694;6.256;2024-03-08T13:43:46;26.10;49.20
3923;DHT22;1976;51.694;6.256;2024-03-08T13:46:12;26.60;50.10
3923;DHT22;1976;51.694;6.256;2024-03-08T13:48:38;26.80;48.00
3923;DHT22;1976;51.694;6.256;2024-03-08T13:51:07;26.80;47.70
3923;DHT22;1976;51.694;6.256;2024-03-08T13:53:35;26.70;47.00
3923;DHT22;1976;51.694;6.256;2024-03-08T13:56:04;26.70;46.30
3923;DHT22;1976;51.694;6.256;2024-03-08T13:58:30;26.50;47.80
3923;DHT22;1976;51.694;6.256;2024-03-08T14:00:56;26.20;46.60
3923;DHT22;1976;51.694;6.256;2024-03-08T14:03:22;25.80;46.20
3923;DHT22;1976;51.694;6.256;2024-03-08T14:05:49;25.60;46.90
3923;DHT22;1976;51.694;6.256;2024-03-08T14:08:15;25.90;46.40
3923;DHT22;1976;51.694;6.256;2024-03-08T14:10:43;26.00;47.30
3923;DHT22;1976;51.694;6.256;2024-03-08T14:13:08;26.10;47.00
3923;DHT22;1976;51.694;6.256;2024-03-08T14:15:34;26.00;46.10
3923;DHT22;1976;51.694;6.256;2024-03-08T14:18:01;26.10;47.70
3923;DHT22;1976;51.694;6.256;2024-03-08T14:20:32;26.20;47.00
3923;DHT22;1976;51.694;6.256;2024-03-08T14:22:58;26.40;46.50
3923;DHT22;1976;51.694;6.256;2024-03-08T14:25:24;26.70;46.30
3923;DHT22;1976;51.694;6.256;2024-03-08T14:27:52;27.00;45.80
3923;DHT22;1976;51.694;6.256;2024-03-08T14:30:19;27.10;46.10
3923;DHT22;1976;51.694;6.256;2024-03-08T14:32:58;27.00;45.70
3923;DHT22;1976;51.694;6.256;2024-03-08T14:35:25;26.80;46.20
3923;DHT22;1976;51.694;6.256;2024-03-08T14:37:51;26.50;46.00
3923;DHT22;1976;51.694;6.256;2024-03-08T14:40:18;26.40;46.60
3923;DHT22;1976;51.694;6.256;2024-03-08T14:42:48;26.40;46.30
3923;DHT22;1976;51.694;6.256;2024-03-08T14:45:15;26.30;45.70
3923;DHT22;1976;51.694;6.256;2024-03-08T14:47:41;26.20;46.40
3923;DHT22;1976;51.694;6.256;2024-03-08T14:50:09;25.80;45.90
3923;DHT22;1976;51.694;6.256;2024-03-08T14:52:37;25.50;46.20
3923;DHT22;1976;51.694;6.256;2024-03-08T14:55:05;25.40;47.40
3923;DHT22;1976;51.694;6.256;2024-03-08T14:57:32;25.30;48.70
3923;DHT22;1976;51.694;6.256;2024-03-08T14:59:58;25.30;48.10
3923;DHT22;1976;51.694;6.256;2024-03-08T15:02:34;25.30;46.90
3923;DHT22;1976;51.694;6.256;2024-03-08T15:05:03;25.20;47.40
3923;DHT22;1976;51.694;6.256;2024-03-08T15:07:34;25.00;47.10
3923;DHT22;1976;51.694;6.256;2024-03-08T15:10:00;24.90;47.00
3923;DHT22;1976;51.694;6.256;2024-03-08T15:12:26;24.80;47.10
3923;DHT22;1976;51.694;6.256;2024-03-08T15:14:52;24.40;47.10
3923;DHT22;1976;51.694;6.256;2024-03-08T15:17:18;24.30;48.10
3923;DHT22;1976;51.694;6.256;2024-03-08T15:19:49;24.00;48.20
3923;DHT22;1976;51.694;6.256;2024-03-08T15:22:15;23.90;49.30
3923;DHT22;1976;51.694;6.256;2024-03-08T15:24:45;23.80;48.50
3923;DHT22;1976;51.694;6.256;2024-03-08T15:27:11;23.70;49.50
3923;DHT22;1976;51.694;6.256;2024-03-08T15:29:37;23.50;49.00
3923;DHT22;1976;51.694;6.256;2024-03-08T15:32:03;23.40;48.90
3923;DHT22;1976;51.694;6.256;2024-03-08T15:34:29;23.10;49.40
3923;DHT22;1976;51.694;6.256;2024-03-08T15:36:57;22.70;49.40
3923;DHT22;1976;51.694;6.256;2024-03-08T15:39:27;22.50;48.90
3923;DHT22;1976;51.694;6.256;2024-03-08T15:41:52;22.20;49.00
3923;DHT22;1976;51.694;6.256;2024-03-08T15:44:20;21.90;49.80
3923;DHT22;1976;51.694;6.256;2024-03-08T15:46:46;21.60;50.10
3923;DHT22;1976;51.694;6.256;2024-03-08T15:49:12;21.30;49.90
3923;DHT22;1976;51.694;6.256;2024-03-08T15:51:38;21.20;50.40
3923;DHT22;1976;51.694;6.256;2024-03-08T15:54:04;21.10;51.60
3923;DHT22;1976;51.694;6.256;2024-03-08T15:56:30;21.00;51.30
3923;DHT22;1976;51.694;6.256;2024-03-08T15:59:00;20.80;51.10
3923;DHT22;1976;51.694;6.256;2024-03-08T16:01:32;20.50;51.90
3923;DHT22;1976;51.694;6.256;2024-03-08T16:03:58;20.40;52.00
3923;DHT22;1976;51.694;6.256;2024-03-08T16:06:25;20.30;52.90
3923;DHT22;1976;51.694;6.256;2024-03-08T16:08:51;20.10;52.50
3923;DHT22;1976;51.694;6.256;2024-03-08T16:11:17;19.90;52.50
3923;DHT22;1976;51.694;6.256;2024-03-08T16:13:45;19.70;52.60
3923;DHT22;1976;51.694;6.256;2024-03-08T16:16:11;19.50;52.40
3923;DHT22;1976;51.694;6.256;2024-03-08T16:18:37;19.20;53.30
3923;DHT22;1976;51.694;6.256;2024-03-08T16:21:04;19.60;54.00
3923;DHT22;1976;51.694;6.256;2024-03-08T16:23:30;18.80;53.70